Portugal Quinto — CUPR3 — position and weather

sailwx.info

Track history (hours):
 
Tides and Currents Weather Stations Pressure Air Temp Water Temp Dewpoint Dewpoint Depression Visibility Wind Speed Wind Dir Waves Ship Positions

Portugal Quinto

Last reported at 2018-Jun-22 13:02 UTC. Time now 2018-Jun-24 16:27 UTC.
Position N 37°08' W 008°32'.

Length 21 m.

Type: Fishing. MMSI: 263406770.

Date/timePositionNaut miles runAvg speedWind from/ knotsBaromVisibWave heightAir tempDewpointWater temp
2018-Jun-22 13:02N 37°08' W 008°32'0 0.0
2018-Jun-22 13:01N 37°08' W 008°32'1 1.5
2018-Jun-22 12:31N 37°07' W 008°32'4 8.0
2018-Jun-22 12:00N 37°05' W 008°36'4 8.2
2018-Jun-22 11:30N 37°04' W 008°41'4 8.1
2018-Jun-22 10:58N 37°03' W 008°46'6 0.5
2018-Jun-21 23:30N 37°00' W 008°53'5 9.5
2018-Jun-21 23:00N 37°02' W 008°48'5 9.2
2018-Jun-21 22:25N 37°04' W 008°41'4 9.0
2018-Jun-21 22:01N 37°05' W 008°37'4 8.6
2018-Jun-21 21:30N 37°07' W 008°32'2 0.5
2018-Jun-21 18:15N 37°08' W 008°32'0 0.0
2018-Jun-21 18:00N 37°08' W 008°32'0 0.0
2018-Jun-21 12:28N 37°08' W 008°32'0 0.0
2018-Jun-21 12:00N 37°08' W 008°32'0 0.0
2018-Jun-21 11:30N 37°08' W 008°32'0 0.0
2018-Jun-21 11:00N 37°08' W 008°32'0 0.0
2018-Jun-21 06:33N 37°08' W 008°32'0 0.3
2018-Jun-21 06:30N 37°08' W 008°32'4 7.3
2018-Jun-21 05:59N 37°04' W 008°33'3 6.8
2018-Jun-21 05:29N 37°02' W 008°36'3 3.1
2018-Jun-21 04:36N 37°05' W 008°37'1 4.2
2018-Jun-21 04:24N 37°05' W 008°36'2 2.8
2018-Jun-21 03:38N 37°06' W 008°38'0 0.0
2018-Jun-21 03:25N 37°06' W 008°38'0 0.0
2018-Jun-21 02:45N 37°06' W 008°38'0 0.1
2018-Jun-21 02:25N 37°06' W 008°38'0 0.0
2018-Jun-21 01:58N 37°06' W 008°38'0 0.0
2018-Jun-21 01:24N 37°06' W 008°38'0 0.0
2018-Jun-21 00:52N 37°06' W 008°38'0 0.0
2018-Jun-21 00:30N 37°06' W 008°38'0 0.0
2018-Jun-20 23:46N 37°06' W 008°38'3 2.6
2018-Jun-20 22:27N 37°03' W 008°39'4 8.8
2018-Jun-20 21:59N 37°05' W 008°34'4 8.0
2018-Jun-20 21:30N 37°08' W 008°32'0 0.0
2018-Jun-19 21:38N 37°08' W 008°32'0 0.0
2018-Jun-19 21:30N 37°08' W 008°32'0 0.0
2018-Jun-19 09:17N 37°08' W 008°32'0 0.4
2018-Jun-19 09:00N 37°08' W 008°32'2 3.5
2018-Jun-19 08:30N 37°06' W 008°32'4 8.8
2018-Jun-19 08:00N 37°04' W 008°37'2 4.9
2018-Jun-19 07:30N 37°03' W 008°39'0 0.2
2018-Jun-19 07:00N 37°03' W 008°39'0 0.0
2018-Jun-19 06:27N 37°03' W 008°39'0 0.1
2018-Jun-19 06:00N 37°03' W 008°39'1 1.5
2018-Jun-19 05:30N 37°03' W 008°40'3 5.6
2018-Jun-19 05:00N 37°04' W 008°37'4 7.9
2018-Jun-19 04:30N 37°06' W 008°32'4 7.9
2018-Jun-19 04:00N 37°04' W 008°28'2 4.3
2018-Jun-19 03:30N 37°03' W 008°25'3 5.7
2018-Jun-19 03:00N 37°04' W 008°28'4 7.1
2018-Jun-19 02:30N 37°07' W 008°32'1 0.1
2018-Jun-18 08:32N 37°08' W 008°32'0 0.0
2018-Jun-18 08:28N 37°08' W 008°32'3 7.3
2018-Jun-18 08:00N 37°05' W 008°33'4 8.6
2018-Jun-18 07:30N 37°03' W 008°38'4 8.7
2018-Jun-18 07:00N 37°04' W 008°43'0 0.9
2018-Jun-18 06:30N 37°04' W 008°43'0 0.1
2018-Jun-18 06:00N 37°04' W 008°43'0 0.1
2018-Jun-18 05:31N 37°04' W 008°43'3 5.1
2018-Jun-18 05:00N 37°02' W 008°42'3 6.2
2018-Jun-18 04:30N 37°05' W 008°43'0 0.1
2018-Jun-18 04:00N 37°05' W 008°43'0 0.0
2018-Jun-18 03:30N 37°05' W 008°43'0 0.1
2018-Jun-18 03:00N 37°05' W 008°43'1 1.7
2018-Jun-18 02:30N 37°04' W 008°44'4 7.6
2018-Jun-18 02:00N 37°03' W 008°48'2 4.3
2018-Jun-18 01:28N 37°03' W 008°45'3 6.6
2018-Jun-18 00:58N 37°04' W 008°42'4 7.9
2018-Jun-18 00:30N 37°05' W 008°37'4 8.5
2018-Jun-18 00:00N 37°06' W 008°32'2 3.8
2018-Jun-17 23:30N 37°08' W 008°32'  
2018-Jun-15 10:06N 37°08' W 008°32'0 0.0
2018-Jun-15 10:00N 37°08' W 008°32'0 0.2
2018-Jun-15 09:31N 37°08' W 008°32'3 6.0
2018-Jun-15 09:00N 37°05' W 008°32'3 6.4
2018-Jun-15 08:30N 37°02' W 008°34'0 0.0
2018-Jun-15 08:00N 37°02' W 008°34'0 0.2
2018-Jun-15 07:30N 37°02' W 008°34'2 4.9
2018-Jun-15 07:00N 37°04' W 008°36'2 4.4
2018-Jun-15 06:30N 37°04' W 008°39'0 0.2
2018-Jun-15 06:00N 37°04' W 008°39'0 0.2
2018-Jun-15 05:30N 37°04' W 008°39'0 0.7
2018-Jun-15 05:00N 37°05' W 008°39'1 2.8
2018-Jun-15 04:30N 37°05' W 008°37'0 0.3
2018-Jun-15 03:59N 37°05' W 008°37'0 0.3
2018-Jun-15 03:30N 37°06' W 008°38'0 0.2
2018-Jun-15 03:00N 37°06' W 008°38'0 0.3
2018-Jun-15 02:31N 37°06' W 008°38'0 0.6
2018-Jun-15 02:00N 37°05' W 008°38'4 7.7
2018-Jun-15 01:30N 37°03' W 008°42'1 2.7
2018-Jun-15 01:00N 37°04' W 008°41'4 8.2
2018-Jun-15 00:30N 37°05' W 008°36'4 7.7
2018-Jun-15 00:01N 37°07' W 008°32'1 2.8
2018-Jun-14 23:30N 37°08' W 008°32'0 0.0
2018-Jun-14 11:48N 37°08' W 008°32'0 0.4
2018-Jun-14 11:30N 37°08' W 008°32'0 0.0
2018-Jun-14 11:00N 37°08' W 008°32'0 0.0
2018-Jun-14 10:29N 37°08' W 008°32'0 0.0
2018-Jun-14 09:49N 37°08' W 008°32'0 0.0
2018-Jun-14 09:28N 37°08' W 008°32'0 0.0
2018-Jun-14 09:00N 37°08' W 008°32'0 0.0
2018-Jun-14 08:30N 37°08' W 008°32'2 2.8
2018-Jun-14 07:58N 37°06' W 008°32'2 3.4
2018-Jun-14 07:30N 37°05' W 008°33'0 0.1
2018-Jun-14 07:00N 37°05' W 008°33'0 0.1
2018-Jun-14 06:30N 37°05' W 008°33'0 0.2
2018-Jun-14 06:00N 37°05' W 008°33'2 3.6
2018-Jun-14 05:30N 37°04' W 008°31'3 5.6
2018-Jun-14 05:00N 37°04' W 008°27'2 3.9
2018-Jun-14 04:30N 37°04' W 008°25'0 0.5
2018-Jun-14 03:59N 37°04' W 008°25'5 7.3
2018-Jun-14 03:19N 37°01' W 008°20'2 7.2
2018-Jun-14 03:00N 37°02' W 008°22'4 7.7
2018-Jun-14 02:30N 37°04' W 008°27'4 7.7
2018-Jun-14 02:00N 37°05' W 008°31'3 5.6
2018-Jun-14 01:30N 37°08' W 008°32'0 0.0
2018-Jun-13 08:24N 37°08' W 008°32'0 0.1
2018-Jun-13 08:00N 37°08' W 008°32'2 4.3
2018-Jun-13 07:30N 37°06' W 008°31'1 2.6
2018-Jun-13 07:00N 37°05' W 008°30'0 0.1
2018-Jun-13 06:30N 37°05' W 008°30'0 0.1
2018-Jun-13 06:00N 37°05' W 008°30'2 3.6
2018-Jun-13 05:30N 37°04' W 008°28'3 6.4
2018-Jun-13 05:00N 37°03' W 008°25'4 8.0
2018-Jun-13 04:30N 37°02' W 008°20'2 4.1
2018-Jun-13 04:00N 37°02' W 008°17'0 0.6
2018-Jun-13 03:30N 37°02' W 008°17'1 2.0
2018-Jun-13 03:00N 37°01' W 008°18'3 5.3
2018-Jun-13 02:30N 37°00' W 008°21'4 7.9
2018-Jun-13 02:00N 36°59' W 008°26'4 8.0
2018-Jun-13 01:30N 37°00' W 008°31'3 6.7
2018-Jun-13 01:00N 37°01' W 008°35'3 5.5
2018-Jun-13 00:30N 37°04' W 008°36'4 8.5
2018-Jun-12 23:59N 37°06' W 008°32'2 3.6
2018-Jun-12 23:30N 37°08' W 008°32'  
Track history (hours):
 
Tides and Currents Weather Stations Pressure Air Temp Water Temp Dewpoint Dewpoint Depression Visibility Wind Speed Wind Dir Waves Ship Positions

Portugal Quinto

Last reported at 2018-Jun-22 13:02 UTC. Time now 2018-Jun-24 16:27 UTC.
Position N 37°08' W 008°32'.

Length 21 m.

Type: Fishing. MMSI: 263406770.

Date/timePositionNaut miles runAvg speedWind from/ knotsBaromVisibWave heightAir tempDewpointWater temp
2018-Jun-22 13:02N 37°08' W 008°32'0 0.0
2018-Jun-22 13:01N 37°08' W 008°32'1 1.5
2018-Jun-22 12:31N 37°07' W 008°32'4 8.0
2018-Jun-22 12:00N 37°05' W 008°36'4 8.2
2018-Jun-22 11:30N 37°04' W 008°41'4 8.1
2018-Jun-22 10:58N 37°03' W 008°46'6 0.5
2018-Jun-21 23:30N 37°00' W 008°53'5 9.5
2018-Jun-21 23:00N 37°02' W 008°48'5 9.2
2018-Jun-21 22:25N 37°04' W 008°41'4 9.0
2018-Jun-21 22:01N 37°05' W 008°37'4 8.6
2018-Jun-21 21:30N 37°07' W 008°32'2 0.5
2018-Jun-21 18:15N 37°08' W 008°32'0 0.0
2018-Jun-21 18:00N 37°08' W 008°32'0 0.0
2018-Jun-21 12:28N 37°08' W 008°32'0 0.0
2018-Jun-21 12:00N 37°08' W 008°32'0 0.0
2018-Jun-21 11:30N 37°08' W 008°32'0 0.0
2018-Jun-21 11:00N 37°08' W 008°32'0 0.0
2018-Jun-21 06:33N 37°08' W 008°32'0 0.3
2018-Jun-21 06:30N 37°08' W 008°32'4 7.3
2018-Jun-21 05:59N 37°04' W 008°33'3 6.8
2018-Jun-21 05:29N 37°02' W 008°36'3 3.1
2018-Jun-21 04:36N 37°05' W 008°37'1 4.2
2018-Jun-21 04:24N 37°05' W 008°36'2 2.8
2018-Jun-21 03:38N 37°06' W 008°38'0 0.0
2018-Jun-21 03:25N 37°06' W 008°38'0 0.0
2018-Jun-21 02:45N 37°06' W 008°38'0 0.1
2018-Jun-21 02:25N 37°06' W 008°38'0 0.0
2018-Jun-21 01:58N 37°06' W 008°38'0 0.0
2018-Jun-21 01:24N 37°06' W 008°38'0 0.0
2018-Jun-21 00:52N 37°06' W 008°38'0 0.0
2018-Jun-21 00:30N 37°06' W 008°38'0 0.0
2018-Jun-20 23:46N 37°06' W 008°38'3 2.6
2018-Jun-20 22:27N 37°03' W 008°39'4 8.8
2018-Jun-20 21:59N 37°05' W 008°34'4 8.0
2018-Jun-20 21:30N 37°08' W 008°32'0 0.0
2018-Jun-19 21:38N 37°08' W 008°32'0 0.0
2018-Jun-19 21:30N 37°08' W 008°32'0 0.0
2018-Jun-19 09:17N 37°08' W 008°32'0 0.4
2018-Jun-19 09:00N 37°08' W 008°32'2 3.5
2018-Jun-19 08:30N 37°06' W 008°32'4 8.8
2018-Jun-19 08:00N 37°04' W 008°37'2 4.9
2018-Jun-19 07:30N 37°03' W 008°39'0 0.2
2018-Jun-19 07:00N 37°03' W 008°39'0 0.0
2018-Jun-19 06:27N 37°03' W 008°39'0 0.1
2018-Jun-19 06:00N 37°03' W 008°39'1 1.5
2018-Jun-19 05:30N 37°03' W 008°40'3 5.6
2018-Jun-19 05:00N 37°04' W 008°37'4 7.9
2018-Jun-19 04:30N 37°06' W 008°32'4 7.9
2018-Jun-19 04:00N 37°04' W 008°28'2 4.3
2018-Jun-19 03:30N 37°03' W 008°25'3 5.7
2018-Jun-19 03:00N 37°04' W 008°28'4 7.1
2018-Jun-19 02:30N 37°07' W 008°32'1 0.1
2018-Jun-18 08:32N 37°08' W 008°32'0 0.0
2018-Jun-18 08:28N 37°08' W 008°32'3 7.3
2018-Jun-18 08:00N 37°05' W 008°33'4 8.6
2018-Jun-18 07:30N 37°03' W 008°38'4 8.7
2018-Jun-18 07:00N 37°04' W 008°43'0 0.9
2018-Jun-18 06:30N 37°04' W 008°43'0 0.1
2018-Jun-18 06:00N 37°04' W 008°43'0 0.1
2018-Jun-18 05:31N 37°04' W 008°43'3 5.1
2018-Jun-18 05:00N 37°02' W 008°42'3 6.2
2018-Jun-18 04:30N 37°05' W 008°43'0 0.1
2018-Jun-18 04:00N 37°05' W 008°43'0 0.0
2018-Jun-18 03:30N 37°05' W 008°43'0 0.1
2018-Jun-18 03:00N 37°05' W 008°43'1 1.7
2018-Jun-18 02:30N 37°04' W 008°44'4 7.6
2018-Jun-18 02:00N 37°03' W 008°48'2 4.3
2018-Jun-18 01:28N 37°03' W 008°45'3 6.6
2018-Jun-18 00:58N 37°04' W 008°42'4 7.9
2018-Jun-18 00:30N 37°05' W 008°37'4 8.5
2018-Jun-18 00:00N 37°06' W 008°32'2 3.8
2018-Jun-17 23:30N 37°08' W 008°32'  
2018-Jun-15 10:06N 37°08' W 008°32'0 0.0
2018-Jun-15 10:00N 37°08' W 008°32'0 0.2
2018-Jun-15 09:31N 37°08' W 008°32'3 6.0
2018-Jun-15 09:00N 37°05' W 008°32'3 6.4
2018-Jun-15 08:30N 37°02' W 008°34'0 0.0
2018-Jun-15 08:00N 37°02' W 008°34'0 0.2
2018-Jun-15 07:30N 37°02' W 008°34'2 4.9
2018-Jun-15 07:00N 37°04' W 008°36'2 4.4
2018-Jun-15 06:30N 37°04' W 008°39'0 0.2
2018-Jun-15 06:00N 37°04' W 008°39'0 0.2
2018-Jun-15 05:30N 37°04' W 008°39'0 0.7
2018-Jun-15 05:00N 37°05' W 008°39'1 2.8
2018-Jun-15 04:30N 37°05' W 008°37'0 0.3
2018-Jun-15 03:59N 37°05' W 008°37'0 0.3
2018-Jun-15 03:30N 37°06' W 008°38'0 0.2
2018-Jun-15 03:00N 37°06' W 008°38'0 0.3
2018-Jun-15 02:31N 37°06' W 008°38'0 0.6
2018-Jun-15 02:00N 37°05' W 008°38'4 7.7
2018-Jun-15 01:30N 37°03' W 008°42'1 2.7
2018-Jun-15 01:00N 37°04' W 008°41'4 8.2
2018-Jun-15 00:30N 37°05' W 008°36'4 7.7
2018-Jun-15 00:01N 37°07' W 008°32'1 2.8
2018-Jun-14 23:30N 37°08' W 008°32'0 0.0
2018-Jun-14 11:48N 37°08' W 008°32'0 0.4
2018-Jun-14 11:30N 37°08' W 008°32'0 0.0
2018-Jun-14 11:00N 37°08' W 008°32'0 0.0
2018-Jun-14 10:29N 37°08' W 008°32'0 0.0
2018-Jun-14 09:49N 37°08' W 008°32'0 0.0
2018-Jun-14 09:28N 37°08' W 008°32'0 0.0
2018-Jun-14 09:00N 37°08' W 008°32'0 0.0
2018-Jun-14 08:30N 37°08' W 008°32'2 2.8
2018-Jun-14 07:58N 37°06' W 008°32'2 3.4
2018-Jun-14 07:30N 37°05' W 008°33'0 0.1
2018-Jun-14 07:00N 37°05' W 008°33'0 0.1
2018-Jun-14 06:30N 37°05' W 008°33'0 0.2
2018-Jun-14 06:00N 37°05' W 008°33'2 3.6
2018-Jun-14 05:30N 37°04' W 008°31'3 5.6
2018-Jun-14 05:00N 37°04' W 008°27'2 3.9
2018-Jun-14 04:30N 37°04' W 008°25'0 0.5
2018-Jun-14 03:59N 37°04' W 008°25'5 7.3
2018-Jun-14 03:19N 37°01' W 008°20'2 7.2
2018-Jun-14 03:00N 37°02' W 008°22'4 7.7
2018-Jun-14 02:30N 37°04' W 008°27'4 7.7
2018-Jun-14 02:00N 37°05' W 008°31'3 5.6
2018-Jun-14 01:30N 37°08' W 008°32'0 0.0
2018-Jun-13 08:24N 37°08' W 008°32'0 0.1
2018-Jun-13 08:00N 37°08' W 008°32'2 4.3
2018-Jun-13 07:30N 37°06' W 008°31'1 2.6
2018-Jun-13 07:00N 37°05' W 008°30'0 0.1
2018-Jun-13 06:30N 37°05' W 008°30'0 0.1
2018-Jun-13 06:00N 37°05' W 008°30'2 3.6
2018-Jun-13 05:30N 37°04' W 008°28'3 6.4
2018-Jun-13 05:00N 37°03' W 008°25'4 8.0
2018-Jun-13 04:30N 37°02' W 008°20'2 4.1
2018-Jun-13 04:00N 37°02' W 008°17'0 0.6
2018-Jun-13 03:30N 37°02' W 008°17'1 2.0
2018-Jun-13 03:00N 37°01' W 008°18'3 5.3
2018-Jun-13 02:30N 37°00' W 008°21'4 7.9
2018-Jun-13 02:00N 36°59' W 008°26'4 8.0
2018-Jun-13 01:30N 37°00' W 008°31'3 6.7
2018-Jun-13 01:00N 37°01' W 008°35'3 5.5
2018-Jun-13 00:30N 37°04' W 008°36'4 8.5
2018-Jun-12 23:59N 37°06' W 008°32'2 3.6
2018-Jun-12 23:30N 37°08' W 008°32'  

Dump ship's entire track history